Es ist keine erhöhte Aufmerksamkeit aufgrund des Wetters notwendig.   -   Es gibt keine Warnungen.

Nearby METAR Reports

 

LEZL - Sevilla, Spain
Distance from station: ONO 8km
aktuell: 18/11/2018 23:00
stark bewölkt
stark bewölkt
 Wind von OSO
Wind: OSO 17 km/h
Temperatur: 14°C
Taupunkt: 13°C
Luftfeuchte: 94%
Luftdruck: 1000 hPa
Clouds: stark bewölkt
Visibility: 10 km
Cloud details: stark bewölkt 396 m
2018/11/18 22:00 LEZL 182200Z 11009KT 080V140 9999 BKN013 14/13 Q1000 NOSIG
LEMO - Morón, Spain
Distance from station: SO 43km
aktuell: 18/11/2018 23:00
teilweise bewölkt
teilweise bewölkt
 Wind von S
Wind: S 20 km/h
Temperatur: 14°C
Taupunkt: 11°C
Luftfeuchte: 82%
Luftdruck: 1000 hPa
Clouds: teilweise bewölkt
Visibility: 10 km
Cloud details: teilweise bewölkt 701 m
2018/11/18 22:00 LEMO 182200Z 17011KT 9999 SCT023 14/11 Q1000 NOSIG
LEJR - Jeréz, Spain
Distance from station: S 71km
aktuell: 18/11/2018 23:00
teilweise bewölkt
teilweise bewölkt
 Wind von S
Wind: S 15 km/h
Temperatur: 13°C
Taupunkt: 12°C
Luftfeuchte: 94%
Luftdruck: 1000 hPa
Clouds: teilweise bewölkt
Visibility: 10 km
Cloud details: teilweise bewölkt 427 m
teilweise bewölkt 610 m
2018/11/18 22:00 LEJR 182200Z 18008KT 120V210 9999 SCT014 SCT020 13/12 Q1000
 
LERT - Rota, Spain
Distance from station: SSW 89km
aktuell: 18/11/2018 23:15
Rain showers, teilweise bewölkt
Rain showers, teilweise bewölkt
 Wind von WNW
Wind: WNW 13 km/h
Temperatur: 15°C
Taupunkt: 13°C
Luftfeuchte: 88%
Luftdruck: 1000 hPa
Zusammenfassung: Rain Showers
Clouds: teilweise bewölkt
Visibility: 9 km
Cloud details: teilweise bewölkt 701 m
teilweise bewölkt 1737 m
2018/11/18 22:15 LERT 182215Z 30007KT 9000 SHRA SCT023TCU SCT057 15/13 Q1000 TEMPO 4000 SCT020TCU
LEMG - Málaga, Spain
Distance from station: OSO 157km
aktuell: 18/11/2018 23:00
stark bewölkt
stark bewölkt
 Wind von S
Wind: S 13 km/h
Temperatur: 14°C
Taupunkt: 12°C
Luftfeuchte: 88%
Luftdruck: 1002 hPa
Clouds: stark bewölkt
Visibility: 10 km
Cloud details: Few Clouds 610 m
teilweise bewölkt 1219 m
stark bewölkt 2286 m
2018/11/18 22:00 LEMG 182200Z 17007KT 140V210 9999 FEW020 SCT040 BKN075 14/12 Q1002 NOSIG
LEBA - Córdoba, Spain
Distance from station: ONO 115km
aktuell: 18/11/2018 23:00
teilweise bewölkt
teilweise bewölkt
 Wind von ONO
Wind: ONO 11 km/h
Temperatur: 13°C
Taupunkt: 12°C
Luftfeuchte: 94%
Luftdruck: 1001 hPa
Clouds: teilweise bewölkt
Visibility: 9 km
2018/11/18 22:00 LEBA 182200Z AUTO 07006KT 9000 NSC 13/12 Q1001
 
LEGR - Granada, Spain
Distance from station: O 198km
aktuell: 18/11/2018 23:00
stark bewölkt
stark bewölkt
 Wind von varies
Wind: varies 2 km/h
Temperatur: 9°C
Taupunkt: 9°C
Luftfeuchte: 100%
Luftdruck: 1003 hPa
Clouds: stark bewölkt
Visibility: 10 km
Cloud details: Few Clouds 1219 m
stark bewölkt 1524 m
2018/11/18 22:00 LEGR 182200Z VRB01KT 9999 FEW040 BKN050 09/09 Q1003
LEAM - Almería, Spain
Distance from station: O 326km
aktuell: 18/11/2018 23:00
Regen
Regen
 Wind von N
Wind: N 19 km/h
Temperatur: 14°C
Taupunkt: 12°C
Luftfeuchte: 88%
Luftdruck: 1001 hPa
Zusammenfassung: Regen
Visibility: 9 km
2018/11/18 22:00 LEAM 182200Z AUTO 35010KT 320V020 9000 RA ////// 14/12 Q1001
LEMD - Madrid/Barajas, Spain
Distance from station: NNO 402km
aktuell: 18/11/2018 23:00
Drizzle, geschlossene Wolkendecke
Drizzle, geschlossene Wolkendecke
 Wind von OSO
Wind: OSO 7 km/h
Temperatur: 10°C
Wind Chill: 9°C
Taupunkt: 10°C
Luftfeuchte: 100%
Luftdruck: 1005 hPa
Zusammenfassung: Drizzle
Clouds: geschlossene Wolkendecke
Visibility: 10 km
Cloud details: teilweise bewölkt 671 m
geschlossene Wolkendecke 1311 m
2018/11/18 22:00 LEMD 182200Z 12004KT 060V160 9999 DZ SCT022 OVC043 10/10 Q1005 R88/29//95 BECMG NSW
 
LEVD - Valladolid, Spain
Distance from station: N 492km
aktuell: 18/11/2018 21:30
NOT Current
stark bewölkt
stark bewölkt
 Wind von O
Wind: O 9 km/h
Temperatur: 9°C
Wind Chill: 7°C
Taupunkt: 8°C
Luftfeuchte: 94%
Luftdruck: 1003 hPa
Clouds: stark bewölkt
Visibility: 10 km
Cloud details: stark bewölkt 549 m
stark bewölkt 792 m
2018/11/18 20:30 LEVD 182030Z 09005KT 9999 BKN018 BKN026 09/08 Q1003
LEBL - Barcelona, Spain
Distance from station: NO 816km
aktuell: 18/11/2018 23:00
teilweise bewölkt
teilweise bewölkt
 Wind von O
Wind: O 35 km/h
Temperatur: 15°C
Taupunkt: 11°C
Luftfeuchte: 77%
Luftdruck: 1009 hPa
Clouds: teilweise bewölkt
Visibility: 10 km
Cloud details: teilweise bewölkt 610 m
teilweise bewölkt 1676 m
2018/11/18 22:00 LEBL 182200Z 08019KT 9999 SCT020 SCT055 15/11 Q1009 NOSIG
LEVC - Valencia, Spain
Distance from station: ONO 535km
aktuell: 18/11/2018 23:00
sehr leichter Niederschlag, stark bewölkt
sehr leichter Niederschlag, stark bewölkt
 Wind von NNO
Wind: NNO 13 km/h
Temperatur: 15°C
Taupunkt: 12°C
Luftfeuchte: 82%
Luftdruck: 1005 hPa
Zusammenfassung: sehr leichter Niederschlag
Clouds: stark bewölkt
Visibility: 10 km
Cloud details: Few Clouds 610 m
stark bewölkt 914 m
2018/11/18 22:00 LEVC 182200Z 03007KT 350V060 9999 -RA FEW020TCU BKN030 15/12 Q1005 NOSIG